sensor_id;sensor_type;location;lat;lon;timestamp;pressure;altitude;pressure_sealevel;temperature;humidity
76815;BME280;65768;49.906;19.384;2023-02-07T00:01:35;100650.86;;;-10.20;86.32
76815;BME280;65768;49.906;19.384;2023-02-07T00:04:04;100642.38;;;-10.24;85.94
76815;BME280;65768;49.906;19.384;2023-02-07T00:06:34;100633.33;;;-10.29;85.46
76815;BME280;65768;49.906;19.384;2023-02-07T00:09:06;100635.96;;;-10.30;84.71
76815;BME280;65768;49.906;19.384;2023-02-07T00:11:35;100638.48;;;-10.41;85.43
76815;BME280;65768;49.906;19.384;2023-02-07T00:14:08;100641.55;;;-10.42;86.62
76815;BME280;65768;49.906;19.384;2023-02-07T00:16:38;100646.09;;;-10.40;87.07
76815;BME280;65768;49.906;19.384;2023-02-07T00:19:06;100655.57;;;-10.40;86.89
76815;BME280;65768;49.906;19.384;2023-02-07T00:21:35;100651.92;;;-10.40;86.87
76815;BME280;65768;49.906;19.384;2023-02-07T00:24:03;100654.42;;;-10.37;86.61
76815;BME280;65768;49.906;19.384;2023-02-07T00:26:32;100659.39;;;-10.38;85.92
76815;BME280;65768;49.906;19.384;2023-02-07T00:29:00;100652.26;;;-10.37;85.54
76815;BME280;65768;49.906;19.384;2023-02-07T00:31:31;100654.31;;;-10.38;84.79
76815;BME280;65768;49.906;19.384;2023-02-07T00:34:02;100636.71;;;-10.40;84.68
76815;BME280;65768;49.906;19.384;2023-02-07T00:36:31;100646.77;;;-10.50;84.45
76815;BME280;65768;49.906;19.384;2023-02-07T00:39:07;100639.84;;;-10.49;85.08
76815;BME280;65768;49.906;19.384;2023-02-07T00:41:35;100644.54;;;-10.48;84.75
76815;BME280;65768;49.906;19.384;2023-02-07T00:44:04;100643.58;;;-10.40;85.85
76815;BME280;65768;49.906;19.384;2023-02-07T00:46:33;100648.59;;;-10.31;86.79
76815;BME280;65768;49.906;19.384;2023-02-07T00:49:03;100638.97;;;-10.21;86.23
76815;BME280;65768;49.906;19.384;2023-02-07T00:51:31;100631.72;;;-10.28;85.67
76815;BME280;65768;49.906;19.384;2023-02-07T00:54:00;100625.37;;;-10.40;84.72
76815;BME280;65768;49.906;19.384;2023-02-07T00:56:29;100626.35;;;-10.41;84.10
76815;BME280;65768;49.906;19.384;2023-02-07T00:58:58;100623.26;;;-10.37;84.21
76815;BME280;65768;49.906;19.384;2023-02-07T01:01:27;100623.33;;;-10.38;84.79
76815;BME280;65768;49.906;19.384;2023-02-07T01:03:56;100626.19;;;-10.43;85.51
76815;BME280;65768;49.906;19.384;2023-02-07T01:06:24;100624.09;;;-10.44;85.31
76815;BME280;65768;49.906;19.384;2023-02-07T01:08:56;100619.73;;;-10.51;85.33
76815;BME280;65768;49.906;19.384;2023-02-07T01:11:26;100625.92;;;-10.52;86.11
76815;BME280;65768;49.906;19.384;2023-02-07T01:13:54;100623.82;;;-10.43;87.47
76815;BME280;65768;49.906;19.384;2023-02-07T01:16:33;100614.63;;;-10.51;86.51
76815;BME280;65768;49.906;19.384;2023-02-07T01:19:07;100607.14;;;-10.63;85.89
76815;BME280;65768;49.906;19.384;2023-02-07T01:21:36;100608.92;;;-10.70;86.07
76815;BME280;65768;49.906;19.384;2023-02-07T01:24:06;100612.59;;;-10.74;86.11
76815;BME280;65768;49.906;19.384;2023-02-07T01:26:35;100617.44;;;-10.74;86.13
76815;BME280;65768;49.906;19.384;2023-02-07T01:29:04;100611.70;;;-10.81;84.89
76815;BME280;65768;49.906;19.384;2023-02-07T01:31:32;100608.70;;;-10.96;84.59
76815;BME280;65768;49.906;19.384;2023-02-07T01:34:00;100600.45;;;-11.06;83.95
76815;BME280;65768;49.906;19.384;2023-02-07T01:36:28;100591.85;;;-11.08;84.32
76815;BME280;65768;49.906;19.384;2023-02-07T01:38:57;100598.05;;;-11.07;84.67
76815;BME280;65768;49.906;19.384;2023-02-07T01:41:26;100600.67;;;-11.09;85.81
76815;BME280;65768;49.906;19.384;2023-02-07T01:44:04;100596.06;;;-11.10;86.44
76815;BME280;65768;49.906;19.384;2023-02-07T01:46:34;100590.10;;;-11.05;86.74
76815;BME280;65768;49.906;19.384;2023-02-07T01:49:10;100603.46;;;-10.93;86.97
76815;BME280;65768;49.906;19.384;2023-02-07T01:51:44;100584.02;;;-10.90;86.60
76815;BME280;65768;49.906;19.384;2023-02-07T01:54:14;100594.21;;;-10.93;86.81
76815;BME280;65768;49.906;19.384;2023-02-07T01:56:49;100595.89;;;-10.93;86.77
76815;BME280;65768;49.906;19.384;2023-02-07T01:59:19;100581.34;;;-10.94;86.23
76815;BME280;65768;49.906;19.384;2023-02-07T02:01:48;100558.84;;;-10.88;85.28
76815;BME280;65768;49.906;19.384;2023-02-07T02:04:16;100571.75;;;-10.89;86.36
76815;BME280;65768;49.906;19.384;2023-02-07T02:06:44;100589.30;;;-10.90;86.71
76815;BME280;65768;49.906;19.384;2023-02-07T02:09:14;100588.07;;;-10.95;86.48
76815;BME280;65768;49.906;19.384;2023-02-07T02:14:50;100589.87;;;-10.99;87.08
76815;BME280;65768;49.906;19.384;2023-02-07T02:23:07;100593.23;;;-11.18;85.71
76815;BME280;65768;49.906;19.384;2023-02-07T02:29:19;100609.57;;;-11.37;85.63
76815;BME280;65768;49.906;19.384;2023-02-07T02:34:52;100619.08;;;-11.37;86.19
76815;BME280;65768;49.906;19.384;2023-02-07T02:37:25;100619.56;;;-11.36;85.93
76815;BME280;65768;49.906;19.384;2023-02-07T02:40:05;100621.52;;;-11.35;86.23
76815;BME280;65768;49.906;19.384;2023-02-07T02:42:45;100619.63;;;-11.33;85.88
76815;BME280;65768;49.906;19.384;2023-02-07T02:45:27;100622.95;;;-11.41;85.41
76815;BME280;65768;49.906;19.384;2023-02-07T02:47:56;100615.32;;;-11.46;84.39
76815;BME280;65768;49.906;19.384;2023-02-07T02:50:29;100612.19;;;-11.51;83.99
76815;BME280;65768;49.906;19.384;2023-02-07T02:52:57;100610.98;;;-11.50;85.38
76815;BME280;65768;49.906;19.384;2023-02-07T03:04:47;100625.66;;;-11.57;84.77
76815;BME280;65768;49.906;19.384;2023-02-07T03:07:38;100631.70;;;-11.76;84.53
76815;BME280;65768;49.906;19.384;2023-02-07T03:10:31;100638.81;;;-11.88;85.07
76815;BME280;65768;49.906;19.384;2023-02-07T03:13:14;100644.40;;;-11.96;85.37
76815;BME280;65768;49.906;19.384;2023-02-07T03:18:44;100642.91;;;-11.89;86.42
76815;BME280;65768;49.906;19.384;2023-02-07T03:21:28;100644.80;;;-11.84;86.44
76815;BME280;65768;49.906;19.384;2023-02-07T03:24:00;100645.16;;;-11.79;86.10
76815;BME280;65768;49.906;19.384;2023-02-07T03:26:31;100645.25;;;-11.77;86.51
76815;BME280;65768;49.906;19.384;2023-02-07T03:29:01;100641.80;;;-11.76;86.67
76815;BME280;65768;49.906;19.384;2023-02-07T03:31:32;100640.56;;;-11.73;86.84
76815;BME280;65768;49.906;19.384;2023-02-07T03:34:07;100641.99;;;-11.74;86.46
76815;BME280;65768;49.906;19.384;2023-02-07T03:37:47;100642.83;;;-11.76;86.47
76815;BME280;65768;49.906;19.384;2023-02-07T03:39:54;100647.29;;;-11.76;86.15
76815;BME280;65768;49.906;19.384;2023-02-07T03:42:32;100643.27;;;-11.74;85.93
76815;BME280;65768;49.906;19.384;2023-02-07T03:45:04;100640.81;;;-11.65;86.29
76815;BME280;65768;49.906;19.384;2023-02-07T03:47:34;100637.43;;;-11.64;86.62
76815;BME280;65768;49.906;19.384;2023-02-07T03:50:02;100635.82;;;-11.66;86.03
76815;BME280;65768;49.906;19.384;2023-02-07T03:52:30;100635.41;;;-11.70;86.41
76815;BME280;65768;49.906;19.384;2023-02-07T03:54:58;100638.28;;;-11.75;86.02
76815;BME280;65768;49.906;19.384;2023-02-07T03:57:26;100635.71;;;-11.77;86.20
76815;BME280;65768;49.906;19.384;2023-02-07T03:59:54;100636.65;;;-11.72;86.88
76815;BME280;65768;49.906;19.384;2023-02-07T04:02:22;100639.54;;;-11.66;87.48
76815;BME280;65768;49.906;19.384;2023-02-07T04:04:50;100638.31;;;-11.61;87.29
76815;BME280;65768;49.906;19.384;2023-02-07T04:07:18;100643.81;;;-11.59;86.76
76815;BME280;65768;49.906;19.384;2023-02-07T04:09:46;100650.27;;;-11.54;86.60
76815;BME280;65768;49.906;19.384;2023-02-07T04:12:14;100646.00;;;-11.55;86.04
76815;BME280;65768;49.906;19.384;2023-02-07T04:14:42;100647.32;;;-11.49;85.83
76815;BME280;65768;49.906;19.384;2023-02-07T04:17:10;100644.76;;;-11.39;86.04
76815;BME280;65768;49.906;19.384;2023-02-07T04:19:38;100646.76;;;-11.26;85.97
76815;BME280;65768;49.906;19.384;2023-02-07T04:22:06;100640.42;;;-11.14;85.01
76815;BME280;65768;49.906;19.384;2023-02-07T04:24:37;100631.31;;;-11.15;84.16
76815;BME280;65768;49.906;19.384;2023-02-07T04:27:05;100630.67;;;-11.12;83.63
76815;BME280;65768;49.906;19.384;2023-02-07T04:29:33;100636.72;;;-11.09;83.77
76815;BME280;65768;49.906;19.384;2023-02-07T04:32:01;100640.79;;;-11.03;84.12
76815;BME280;65768;49.906;19.384;2023-02-07T04:34:30;100640.34;;;-10.92;84.13
76815;BME280;65768;49.906;19.384;2023-02-07T04:36:58;100646.30;;;-10.73;84.79
76815;BME280;65768;49.906;19.384;2023-02-07T04:39:26;100643.16;;;-10.58;84.86
76815;BME280;65768;49.906;19.384;2023-02-07T04:41:54;100642.29;;;-10.49;84.10
76815;BME280;65768;49.906;19.384;2023-02-07T04:44:22;100642.05;;;-10.44;83.73
76815;BME280;65768;49.906;19.384;2023-02-07T04:46:50;100632.14;;;-10.37;83.71
76815;BME280;65768;49.906;19.384;2023-02-07T04:49:18;100633.02;;;-10.30;83.28
76815;BME280;65768;49.906;19.384;2023-02-07T04:51:46;100644.71;;;-10.22;83.55
76815;BME280;65768;49.906;19.384;2023-02-07T04:54:14;100650.70;;;-10.09;84.59
76815;BME280;65768;49.906;19.384;2023-02-07T04:56:42;100654.34;;;-9.99;84.00
76815;BME280;65768;49.906;19.384;2023-02-07T04:59:10;100653.58;;;-9.96;83.47
76815;BME280;65768;49.906;19.384;2023-02-07T05:01:38;100651.64;;;-9.91;83.25
76815;BME280;65768;49.906;19.384;2023-02-07T05:04:06;100640.98;;;-9.86;83.57
76815;BME280;65768;49.906;19.384;2023-02-07T05:06:34;100647.50;;;-9.78;83.66
76815;BME280;65768;49.906;19.384;2023-02-07T05:09:02;100651.15;;;-9.67;85.13
76815;BME280;65768;49.906;19.384;2023-02-07T05:11:30;100636.50;;;-9.61;84.03
76815;BME280;65768;49.906;19.384;2023-02-07T05:13:58;100646.38;;;-9.59;84.20
76815;BME280;65768;49.906;19.384;2023-02-07T05:16:26;100644.45;;;-9.50;84.88
76815;BME280;65768;49.906;19.384;2023-02-07T05:18:54;100633.58;;;-9.54;83.66
76815;BME280;65768;49.906;19.384;2023-02-07T05:21:22;100632.89;;;-9.56;83.72
76815;BME280;65768;49.906;19.384;2023-02-07T05:23:50;100633.49;;;-9.51;83.88
76815;BME280;65768;49.906;19.384;2023-02-07T05:26:18;100627.20;;;-9.55;83.33
76815;BME280;65768;49.906;19.384;2023-02-07T05:28:46;100629.38;;;-9.54;83.67
76815;BME280;65768;49.906;19.384;2023-02-07T05:31:14;100631.47;;;-9.52;84.58
76815;BME280;65768;49.906;19.384;2023-02-07T05:33:42;100630.52;;;-9.46;84.50
76815;BME280;65768;49.906;19.384;2023-02-07T05:36:10;100634.88;;;-9.43;84.15
76815;BME280;65768;49.906;19.384;2023-02-07T05:38:38;100641.63;;;-9.35;84.27
76815;BME280;65768;49.906;19.384;2023-02-07T05:41:06;100644.75;;;-9.24;84.68
76815;BME280;65768;49.906;19.384;2023-02-07T05:43:34;100649.52;;;-9.22;84.39
76815;BME280;65768;49.906;19.384;2023-02-07T05:46:02;100651.04;;;-9.18;85.35
76815;BME280;65768;49.906;19.384;2023-02-07T05:48:30;100655.99;;;-9.17;85.38
76815;BME280;65768;49.906;19.384;2023-02-07T05:50:58;100650.95;;;-9.13;85.45
76815;BME280;65768;49.906;19.384;2023-02-07T05:53:26;100644.38;;;-9.20;85.34
76815;BME280;65768;49.906;19.384;2023-02-07T05:55:54;100646.32;;;-9.18;85.88
76815;BME280;65768;49.906;19.384;2023-02-07T05:58:22;100650.73;;;-9.13;85.33
76815;BME280;65768;49.906;19.384;2023-02-07T06:00:50;100655.90;;;-9.09;85.84
76815;BME280;65768;49.906;19.384;2023-02-07T06:03:18;100654.90;;;-9.09;85.84
76815;BME280;65768;49.906;19.384;2023-02-07T06:05:46;100656.92;;;-9.12;85.97
76815;BME280;65768;49.906;19.384;2023-02-07T06:08:13;100650.19;;;-9.09;85.79
76815;BME280;65768;49.906;19.384;2023-02-07T06:10:41;100653.73;;;-9.06;84.96
76815;BME280;65768;49.906;19.384;2023-02-07T06:13:09;100649.99;;;-9.02;85.51
76815;BME280;65768;49.906;19.384;2023-02-07T06:15:37;100642.58;;;-9.03;84.55
76815;BME280;65768;49.906;19.384;2023-02-07T06:18:06;100644.23;;;-9.02;84.70
76815;BME280;65768;49.906;19.384;2023-02-07T06:20:34;100644.88;;;-8.95;84.96
76815;BME280;65768;49.906;19.384;2023-02-07T06:23:02;100651.10;;;-8.83;85.28
76815;BME280;65768;49.906;19.384;2023-02-07T06:25:30;100650.71;;;-8.75;84.53
76815;BME280;65768;49.906;19.384;2023-02-07T06:27:58;100653.95;;;-8.60;84.90
76815;BME280;65768;49.906;19.384;2023-02-07T06:30:27;100655.27;;;-8.44;85.33
76815;BME280;65768;49.906;19.384;2023-02-07T06:32:55;100658.55;;;-8.34;84.58
76815;BME280;65768;49.906;19.384;2023-02-07T06:35:23;100662.96;;;-8.28;84.07
76815;BME280;65768;49.906;19.384;2023-02-07T06:37:51;100662.81;;;-8.25;83.99
76815;BME280;65768;49.906;19.384;2023-02-07T06:40:19;100662.65;;;-8.20;83.82
76815;BME280;65768;49.906;19.384;2023-02-07T06:42:47;100660.73;;;-8.17;83.70
76815;BME280;65768;49.906;19.384;2023-02-07T06:45:15;100665.45;;;-8.14;83.49
76815;BME280;65768;49.906;19.384;2023-02-07T06:47:43;100668.28;;;-8.09;83.87
76815;BME280;65768;49.906;19.384;2023-02-07T06:50:11;100665.11;;;-8.06;83.02
76815;BME280;65768;49.906;19.384;2023-02-07T06:52:39;100661.73;;;-8.03;83.50
76815;BME280;65768;49.906;19.384;2023-02-07T06:55:07;100664.14;;;-7.97;83.96
76815;BME280;65768;49.906;19.384;2023-02-07T06:57:36;100665.17;;;-7.87;84.09
76815;BME280;65768;49.906;19.384;2023-02-07T07:00:04;100672.65;;;-7.77;84.08
76815;BME280;65768;49.906;19.384;2023-02-07T07:02:33;100674.46;;;-7.67;83.80
76815;BME280;65768;49.906;19.384;2023-02-07T07:05:01;100673.00;;;-7.61;82.94
76815;BME280;65768;49.906;19.384;2023-02-07T07:07:29;100674.27;;;-7.56;82.47
76815;BME280;65768;49.906;19.384;2023-02-07T07:09:57;100679.48;;;-7.47;82.46
76815;BME280;65768;49.906;19.384;2023-02-07T07:12:25;100682.98;;;-7.35;83.57
76815;BME280;65768;49.906;19.384;2023-02-07T07:14:54;100685.38;;;-7.26;83.00
76815;BME280;65768;49.906;19.384;2023-02-07T07:17:22;100694.02;;;-7.26;83.24
76815;BME280;65768;49.906;19.384;2023-02-07T07:19:50;100692.51;;;-7.22;83.14
76815;BME280;65768;49.906;19.384;2023-02-07T07:22:19;100691.21;;;-7.17;82.80
76815;BME280;65768;49.906;19.384;2023-02-07T07:24:50;100694.09;;;-7.17;82.98
76815;BME280;65768;49.906;19.384;2023-02-07T07:27:18;100699.10;;;-7.06;83.85
76815;BME280;65768;49.906;19.384;2023-02-07T07:29:47;100696.93;;;-6.94;83.57
76815;BME280;65768;49.906;19.384;2023-02-07T07:32:15;100693.61;;;-6.91;82.81
76815;BME280;65768;49.906;19.384;2023-02-07T07:34:43;100699.42;;;-6.84;83.23
76815;BME280;65768;49.906;19.384;2023-02-07T07:37:11;100692.89;;;-6.75;83.24
76815;BME280;65768;49.906;19.384;2023-02-07T07:39:39;100689.40;;;-6.70;82.93
76815;BME280;65768;49.906;19.384;2023-02-07T07:42:08;100697.34;;;-6.56;83.30
76815;BME280;65768;49.906;19.384;2023-02-07T07:44:36;100691.89;;;-6.51;82.15
76815;BME280;65768;49.906;19.384;2023-02-07T07:47:04;100690.93;;;-6.44;82.71
76815;BME280;65768;49.906;19.384;2023-02-07T07:49:33;100694.59;;;-6.37;82.40
76815;BME280;65768;49.906;19.384;2023-02-07T07:52:01;100692.87;;;-6.33;82.55
76815;BME280;65768;49.906;19.384;2023-02-07T07:54:29;100695.27;;;-6.37;82.01
76815;BME280;65768;49.906;19.384;2023-02-07T07:56:58;100693.70;;;-6.41;82.02
76815;BME280;65768;49.906;19.384;2023-02-07T07:59:26;100688.80;;;-6.36;82.41
76815;BME280;65768;49.906;19.384;2023-02-07T08:01:54;100683.83;;;-6.33;82.46
76815;BME280;65768;49.906;19.384;2023-02-07T08:04:25;100682.19;;;-6.31;82.48
76815;BME280;65768;49.906;19.384;2023-02-07T08:06:53;100680.17;;;-6.26;81.94
76815;BME280;65768;49.906;19.384;2023-02-07T08:09:22;100674.91;;;-6.22;81.87
76815;BME280;65768;49.906;19.384;2023-02-07T08:11:50;100668.98;;;-6.16;82.05
76815;BME280;65768;49.906;19.384;2023-02-07T08:14:18;100667.09;;;-6.05;82.04
76815;BME280;65768;49.906;19.384;2023-02-07T08:16:46;100666.28;;;-6.00;81.61
76815;BME280;65768;49.906;19.384;2023-02-07T08:19:14;100649.65;;;-5.93;81.45
76815;BME280;65768;49.906;19.384;2023-02-07T08:21:42;100646.11;;;-5.86;81.13
76815;BME280;65768;49.906;19.384;2023-02-07T08:24:10;100650.71;;;-5.78;81.65
76815;BME280;65768;49.906;19.384;2023-02-07T08:26:39;100649.42;;;-5.69;81.91
76815;BME280;65768;49.906;19.384;2023-02-07T08:29:07;100648.09;;;-5.67;81.79
76815;BME280;65768;49.906;19.384;2023-02-07T08:31:35;100652.23;;;-5.60;81.66
76815;BME280;65768;49.906;19.384;2023-02-07T08:34:03;100659.23;;;-5.59;81.28
76815;BME280;65768;49.906;19.384;2023-02-07T08:36:31;100657.45;;;-5.55;81.26
76815;BME280;65768;49.906;19.384;2023-02-07T08:38:59;100651.23;;;-5.43;81.28
76815;BME280;65768;49.906;19.384;2023-02-07T08:41:27;100648.73;;;-5.27;81.29
76815;BME280;65768;49.906;19.384;2023-02-07T08:43:55;100642.40;;;-5.11;81.26
76815;BME280;65768;49.906;19.384;2023-02-07T08:46:24;100645.27;;;-5.10;80.59
76815;BME280;65768;49.906;19.384;2023-02-07T08:48:52;100643.16;;;-5.17;80.35
76815;BME280;65768;49.906;19.384;2023-02-07T08:51:20;100643.92;;;-5.20;80.28
76815;BME280;65768;49.906;19.384;2023-02-07T08:53:48;100646.77;;;-5.17;80.71
76815;BME280;65768;49.906;19.384;2023-02-07T08:56:16;100646.64;;;-5.04;80.63
76815;BME280;65768;49.906;19.384;2023-02-07T08:58:44;100646.44;;;-4.91;80.59
76815;BME280;65768;49.906;19.384;2023-02-07T09:01:12;100647.05;;;-4.89;80.12
76815;BME280;65768;49.906;19.384;2023-02-07T09:03:41;100643.16;;;-4.80;79.89
76815;BME280;65768;49.906;19.384;2023-02-07T09:06:09;100638.56;;;-4.80;79.33
76815;BME280;65768;49.906;19.384;2023-02-07T09:08:37;100632.48;;;-4.69;79.52
76815;BME280;65768;49.906;19.384;2023-02-07T09:11:06;100630.12;;;-4.66;79.16
76815;BME280;65768;49.906;19.384;2023-02-07T09:13:34;100629.14;;;-4.70;78.82
76815;BME280;65768;49.906;19.384;2023-02-07T09:16:02;100619.34;;;-4.58;78.55
76815;BME280;65768;49.906;19.384;2023-02-07T09:18:31;100628.55;;;-4.64;78.06
76815;BME280;65768;49.906;19.384;2023-02-07T09:20:59;100625.75;;;-4.77;78.03
76815;BME280;65768;49.906;19.384;2023-02-07T09:23:27;100630.30;;;-4.71;78.53
76815;BME280;65768;49.906;19.384;2023-02-07T09:26:00;100630.42;;;-4.59;78.44
76815;BME280;65768;49.906;19.384;2023-02-07T09:28:30;100627.98;;;-4.58;78.29
76815;BME280;65768;49.906;19.384;2023-02-07T09:30:58;100622.14;;;-4.37;78.63
76815;BME280;65768;49.906;19.384;2023-02-07T09:33:26;100622.23;;;-4.28;78.14
76815;BME280;65768;49.906;19.384;2023-02-07T09:35:56;100621.72;;;-4.19;78.04
76815;BME280;65768;49.906;19.384;2023-02-07T09:38:24;100617.81;;;-4.23;77.57
76815;BME280;65768;49.906;19.384;2023-02-07T09:40:55;100616.40;;;-4.04;77.64
76815;BME280;65768;49.906;19.384;2023-02-07T09:46:34;100609.30;;;-3.87;77.01
76815;BME280;65768;49.906;19.384;2023-02-07T09:49:20;100617.77;;;-3.84;77.35
76815;BME280;65768;49.906;19.384;2023-02-07T09:51:51;100616.67;;;-3.78;77.09
76815;BME280;65768;49.906;19.384;2023-02-07T09:54:27;100614.88;;;-3.84;76.53
76815;BME280;65768;49.906;19.384;2023-02-07T09:56:59;100616.10;;;-4.00;76.70
76815;BME280;65768;49.906;19.384;2023-02-07T10:02:28;100621.17;;;-3.95;76.41
76815;BME280;65768;49.906;19.384;2023-02-07T10:05:03;100619.13;;;-4.02;76.69
76815;BME280;65768;49.906;19.384;2023-02-07T10:07:32;100617.40;;;-4.34;76.91
76815;BME280;65768;49.906;19.384;2023-02-07T10:10:00;100612.67;;;-4.18;77.07
76815;BME280;65768;49.906;19.384;2023-02-07T10:12:49;100620.02;;;-4.02;77.57
76815;BME280;65768;49.906;19.384;2023-02-07T10:20:39;100620.52;;;-3.82;77.56
76815;BME280;65768;49.906;19.384;2023-02-07T10:26:03;100614.27;;;-4.07;77.29
76815;BME280;65768;49.906;19.384;2023-02-07T10:31:02;100612.58;;;-4.15;77.81
76815;BME280;65768;49.906;19.384;2023-02-07T10:33:35;100604.95;;;-4.04;77.79
76815;BME280;65768;49.906;19.384;2023-02-07T10:36:12;100605.60;;;-3.87;78.25
76815;BME280;65768;49.906;19.384;2023-02-07T10:38:56;100605.78;;;-3.85;78.10
76815;BME280;65768;49.906;19.384;2023-02-07T10:41:40;100600.60;;;-3.69;78.12
76815;BME280;65768;49.906;19.384;2023-02-07T10:44:12;100602.34;;;-3.78;77.96
76815;BME280;65768;49.906;19.384;2023-02-07T10:46:49;100604.39;;;-3.73;78.54
76815;BME280;65768;49.906;19.384;2023-02-07T10:49:32;100603.59;;;-3.69;78.20
76815;BME280;65768;49.906;19.384;2023-02-07T10:52:30;100598.20;;;-3.82;78.64
76815;BME280;65768;49.906;19.384;2023-02-07T10:55:06;100596.80;;;-3.56;78.52
76815;BME280;65768;49.906;19.384;2023-02-07T10:57:35;100587.30;;;-3.46;78.55
76815;BME280;65768;49.906;19.384;2023-02-07T11:00:20;100586.62;;;-3.44;78.45
76815;BME280;65768;49.906;19.384;2023-02-07T11:02:51;100581.80;;;-3.41;78.75
76815;BME280;65768;49.906;19.384;2023-02-07T11:08:00;100576.15;;;-3.50;78.86
76815;BME280;65768;49.906;19.384;2023-02-07T11:10:33;100581.39;;;-3.51;78.92
76815;BME280;65768;49.906;19.384;2023-02-07T11:13:05;100579.34;;;-3.42;78.80
76815;BME280;65768;49.906;19.384;2023-02-07T11:15:59;100579.11;;;-3.35;78.99
76815;BME280;65768;49.906;19.384;2023-02-07T11:24:02;100593.61;;;-3.79;79.27
76815;BME280;65768;49.906;19.384;2023-02-07T11:26:32;100593.52;;;-3.79;79.58
76815;BME280;65768;49.906;19.384;2023-02-07T11:29:17;100587.76;;;-3.72;79.44
76815;BME280;65768;49.906;19.384;2023-02-07T11:31:47;100587.35;;;-3.60;79.48
76815;BME280;65768;49.906;19.384;2023-02-07T11:34:26;100583.77;;;-3.67;79.27
76815;BME280;65768;49.906;19.384;2023-02-07T11:37:22;100582.29;;;-3.79;79.24
76815;BME280;65768;49.906;19.384;2023-02-07T11:43:17;100578.25;;;-3.64;79.79
76815;BME280;65768;49.906;19.384;2023-02-07T11:45:52;100571.88;;;-3.52;79.66
76815;BME280;65768;49.906;19.384;2023-02-07T11:48:32;100565.81;;;-3.44;79.23
76815;BME280;65768;49.906;19.384;2023-02-07T11:51:03;100569.68;;;-3.58;79.31
76815;BME280;65768;49.906;19.384;2023-02-07T11:53:39;100568.45;;;-3.56;79.57
76815;BME280;65768;49.906;19.384;2023-02-07T11:56:43;100571.02;;;-3.65;79.57
76815;BME280;65768;49.906;19.384;2023-02-07T11:59:25;100572.94;;;-3.58;79.50
76815;BME280;65768;49.906;19.384;2023-02-07T12:01:57;100567.81;;;-3.75;79.90
76815;BME280;65768;49.906;19.384;2023-02-07T12:04:31;100566.38;;;-3.73;80.64
76815;BME280;65768;49.906;19.384;2023-02-07T12:07:51;100563.57;;;-3.54;80.12
76815;BME280;65768;49.906;19.384;2023-02-07T12:10:02;100564.09;;;-3.55;79.90
76815;BME280;65768;49.906;19.384;2023-02-07T12:12:53;100571.30;;;-3.57;80.43
76815;BME280;65768;49.906;19.384;2023-02-07T12:15:40;100574.45;;;-3.66;80.50
76815;BME280;65768;49.906;19.384;2023-02-07T12:23:56;100570.38;;;-3.84;80.59
76815;BME280;65768;49.906;19.384;2023-02-07T12:29:25;100560.55;;;-3.91;80.47
76815;BME280;65768;49.906;19.384;2023-02-07T12:32:10;100559.34;;;-3.91;81.05
76815;BME280;65768;49.906;19.384;2023-02-07T12:34:47;100558.89;;;-4.02;81.14
76815;BME280;65768;49.906;19.384;2023-02-07T12:37:23;100552.81;;;-3.95;81.33
76815;BME280;65768;49.906;19.384;2023-02-07T12:40:04;100548.52;;;-4.09;81.57
76815;BME280;65768;49.906;19.384;2023-02-07T12:42:39;100542.48;;;-4.00;81.78
76815;BME280;65768;49.906;19.384;2023-02-07T12:45:15;100540.96;;;-3.97;81.92
76815;BME280;65768;49.906;19.384;2023-02-07T12:47:54;100544.70;;;-3.82;82.13
76815;BME280;65768;49.906;19.384;2023-02-07T12:53:27;100542.81;;;-3.97;82.33
76815;BME280;65768;49.906;19.384;2023-02-07T12:56:01;100538.14;;;-3.85;82.36
76815;BME280;65768;49.906;19.384;2023-02-07T12:58:39;100536.11;;;-3.99;81.90
76815;BME280;65768;49.906;19.384;2023-02-07T13:01:27;100541.05;;;-4.06;82.49
76815;BME280;65768;49.906;19.384;2023-02-07T13:06:34;100540.30;;;-3.89;82.53
76815;BME280;65768;49.906;19.384;2023-02-07T13:17:37;100556.88;;;-4.07;81.85
76815;BME280;65768;49.906;19.384;2023-02-07T13:20:17;100559.52;;;-4.05;81.80
76815;BME280;65768;49.906;19.384;2023-02-07T13:22:58;100556.86;;;-4.03;82.14
76815;BME280;65768;49.906;19.384;2023-02-07T13:25:37;100556.66;;;-3.96;82.01
76815;BME280;65768;49.906;19.384;2023-02-07T13:31:05;100562.84;;;-3.92;81.89
76815;BME280;65768;49.906;19.384;2023-02-07T13:33:37;100560.04;;;-3.91;81.59
76815;BME280;65768;49.906;19.384;2023-02-07T13:36:21;100559.27;;;-3.88;81.55
76815;BME280;65768;49.906;19.384;2023-02-07T13:55:35;100554.41;;;-3.73;81.47
76815;BME280;65768;49.906;19.384;2023-02-07T14:01:24;100558.30;;;-3.79;81.50
76815;BME280;65768;49.906;19.384;2023-02-07T14:06:41;100549.14;;;-3.87;81.76
76815;BME280;65768;49.906;19.384;2023-02-07T14:11:42;100536.60;;;-3.70;81.69
76815;BME280;65768;49.906;19.384;2023-02-07T14:16:52;100541.17;;;-3.77;81.46
76815;BME280;65768;49.906;19.384;2023-02-07T14:22:17;100542.48;;;-3.79;81.71
76815;BME280;65768;49.906;19.384;2023-02-07T14:30:29;100538.48;;;-3.88;82.17
76815;BME280;65768;49.906;19.384;2023-02-07T14:38:31;100544.92;;;-3.91;81.84
76815;BME280;65768;49.906;19.384;2023-02-07T14:41:03;100545.42;;;-3.98;82.22
76815;BME280;65768;49.906;19.384;2023-02-07T14:43:42;100547.90;;;-3.93;82.39
76815;BME280;65768;49.906;19.384;2023-02-07T14:46:14;100549.08;;;-3.90;82.49
76815;BME280;65768;49.906;19.384;2023-02-07T14:54:18;100540.79;;;-3.97;83.01
76815;BME280;65768;49.906;19.384;2023-02-07T15:00:03;100545.50;;;-3.93;82.61
76815;BME280;65768;49.906;19.384;2023-02-07T15:07:40;100547.70;;;-4.01;82.95
76815;BME280;65768;49.906;19.384;2023-02-07T15:10:15;100551.97;;;-4.03;82.91
76815;BME280;65768;49.906;19.384;2023-02-07T15:12:44;100554.05;;;-4.02;83.44
76815;BME280;65768;49.906;19.384;2023-02-07T15:15:55;100554.61;;;-4.05;83.30